createdAt,value
2018-06-27T00:00:18.237Z,69.12
2018-06-27T00:02:46.406Z,69.51
2018-06-27T00:05:14.590Z,69.21
2018-06-27T00:07:42.758Z,69.94
2018-06-27T00:10:10.927Z,69.93
2018-06-27T00:12:39.106Z,70.13
2018-06-27T00:15:07.279Z,70.44
2018-06-27T00:17:35.459Z,70.32
2018-06-27T00:20:03.676Z,70.08
2018-06-27T00:22:31.880Z,69.67
2018-06-27T00:25:00.064Z,69.60
2018-06-27T00:27:28.237Z,69.78
2018-06-27T00:29:56.426Z,69.80
2018-06-27T00:32:24.586Z,69.90
2018-06-27T00:34:52.760Z,70.07
2018-06-27T00:37:20.946Z,70.33
2018-06-27T00:39:49.130Z,70.39
2018-06-27T00:42:17.304Z,70.57
2018-06-27T00:44:45.479Z,70.25
2018-06-27T00:47:13.659Z,70.56
2018-06-27T00:49:41.824Z,70.18
2018-06-27T00:52:10.004Z,70.46
2018-06-27T00:54:38.179Z,70.40
2018-06-27T00:57:06.343Z,70.47
2018-06-27T00:59:34.526Z,70.66
2018-06-27T01:02:02.691Z,70.73
2018-06-27T01:04:30.850Z,70.58
2018-06-27T01:06:59.027Z,70.76
2018-06-27T01:09:27.710Z,70.26
2018-06-27T01:11:55.898Z,70.92
2018-06-27T01:14:24.060Z,70.82
2018-06-27T01:16:52.242Z,70.67
2018-06-27T01:19:20.419Z,70.84
2018-06-27T01:21:49.019Z,70.56
2018-06-27T01:24:17.216Z,70.37
2018-06-27T01:26:45.391Z,70.56
2018-06-27T01:29:13.555Z,70.56
2018-06-27T01:31:41.730Z,70.50
2018-06-27T01:34:09.906Z,70.51
2018-06-27T01:36:38.115Z,70.59
2018-06-27T01:39:08.042Z,70.61
2018-06-27T01:41:36.234Z,70.63
2018-06-27T01:44:04.448Z,70.58
2018-06-27T01:46:32.771Z,70.67
2018-06-27T01:49:00.953Z,70.85
2018-06-27T01:51:29.127Z,70.94
2018-06-27T01:53:57.282Z,70.75
2018-06-27T01:56:25.457Z,70.79
2018-06-27T01:58:53.618Z,70.75
2018-06-27T02:01:21.802Z,70.95
2018-06-27T02:03:49.967Z,70.97
2018-06-27T02:06:18.133Z,70.85
2018-06-27T02:08:46.339Z,70.86
2018-06-27T02:11:14.494Z,71.01
2018-06-27T02:13:42.693Z,71.12
2018-06-27T02:16:10.917Z,71.03
2018-06-27T02:18:39.070Z,71.14
2018-06-27T02:21:07.246Z,71.03
2018-06-27T02:23:35.410Z,71.32
2018-06-27T02:26:03.615Z,71.34
2018-06-27T02:28:31.791Z,71.38
2018-06-27T02:31:00.068Z,71.41
2018-06-27T02:33:28.251Z,71.42
2018-06-27T02:35:56.842Z,71.59
2018-06-27T02:38:25.370Z,71.68
2018-06-27T02:40:53.519Z,71.93
2018-06-27T02:43:22.011Z,71.94
2018-06-27T02:45:50.223Z,72.09
2018-06-27T02:48:18.426Z,71.96
2018-06-27T02:50:46.637Z,72.02
2018-06-27T02:53:14.899Z,71.80
2018-06-27T02:55:43.063Z,71.85
2018-06-27T02:58:11.278Z,71.85
2018-06-27T03:00:39.439Z,71.89
2018-06-27T03:03:07.623Z,71.92
2018-06-27T03:05:35.815Z,71.87
2018-06-27T03:08:03.988Z,71.89
2018-06-27T03:10:32.179Z,71.93
2018-06-27T03:13:00.369Z,71.84
2018-06-27T03:15:28.561Z,71.77
2018-06-27T03:17:56.731Z,72.01
2018-06-27T03:20:24.944Z,72.16
2018-06-27T03:22:53.074Z,72.41
2018-06-27T03:25:21.238Z,72.44
2018-06-27T03:27:49.423Z,72.46
2018-06-27T03:30:17.599Z,72.35
2018-06-27T03:32:45.778Z,72.30
2018-06-27T03:35:13.954Z,72.28
2018-06-27T03:37:42.111Z,72.48
2018-06-27T03:40:10.303Z,72.58
2018-06-27T03:42:38.466Z,72.56
2018-06-27T03:45:06.643Z,72.75
2018-06-27T03:47:34.823Z,72.49
2018-06-27T03:50:03.015Z,72.59
2018-06-27T03:52:31.208Z,72.66
2018-06-27T03:54:59.422Z,72.71
2018-06-27T03:57:27.563Z,72.92
2018-06-27T03:59:55.726Z,72.80
2018-06-27T04:02:23.894Z,73.19
2018-06-27T04:04:52.074Z,73.03
2018-06-27T04:07:20.252Z,73.03
2018-06-27T04:09:48.415Z,72.91
2018-06-27T04:12:16.606Z,72.96
2018-06-27T04:14:44.782Z,72.65
2018-06-27T04:19:47.575Z,72.72
2018-06-27T04:22:20.147Z,72.84
2018-06-27T04:24:48.326Z,72.86
2018-06-27T04:27:16.504Z,72.79
2018-06-27T04:29:44.678Z,72.53
2018-06-27T04:32:12.869Z,72.42
2018-06-27T04:34:41.055Z,72.25
2018-06-27T04:37:09.231Z,72.36
2018-06-27T04:39:37.422Z,72.37
2018-06-27T04:42:05.837Z,72.35
2018-06-27T04:44:34.043Z,71.94
2018-06-27T04:47:02.238Z,71.92
2018-06-27T04:49:30.489Z,72.25
2018-06-27T04:51:58.611Z,72.24
2018-06-27T04:54:26.778Z,72.46
2018-06-27T04:56:54.962Z,72.49
2018-06-27T04:59:23.159Z,72.47
2018-06-27T05:01:51.363Z,72.47
2018-06-27T05:04:19.530Z,72.27
2018-06-27T05:06:47.751Z,72.32
2018-06-27T05:09:15.926Z,72.26
2018-06-27T05:11:44.181Z,72.15
2018-06-27T05:14:12.272Z,72.09
2018-06-27T05:16:40.439Z,72.10
2018-06-27T05:19:08.615Z,72.03
2018-06-27T05:21:36.786Z,72.04
2018-06-27T05:24:05.144Z,71.94
2018-06-27T05:26:33.322Z,71.91
2018-06-27T05:29:01.563Z,71.71
2018-06-27T05:31:29.731Z,71.80
2018-06-27T05:34:00.822Z,71.40
2018-06-27T05:36:29.009Z,71.39
2018-06-27T05:38:57.195Z,71.24
2018-06-27T05:41:25.405Z,71.21
2018-06-27T05:43:53.987Z,70.86
2018-06-27T05:46:22.164Z,70.60
2018-06-27T05:48:50.346Z,70.69
2018-06-27T05:51:18.511Z,69.84
2018-06-27T05:53:46.694Z,69.90
2018-06-27T05:56:14.862Z,69.71
2018-06-27T05:58:43.047Z,69.30
2018-06-27T06:01:11.230Z,69.03
2018-06-27T06:03:39.402Z,68.24
2018-06-27T06:06:07.586Z,67.91
2018-06-27T06:08:35.754Z,67.73
2018-06-27T06:11:03.937Z,68.89
2018-06-27T06:13:32.192Z,68.53
2018-06-27T06:16:00.410Z,68.06
2018-06-27T06:18:28.594Z,67.31
2018-06-27T06:20:56.771Z,67.42
2018-06-27T06:23:25.052Z,68.55
2018-06-27T06:25:53.275Z,67.69
2018-06-27T06:28:21.466Z,67.06
2018-06-27T06:30:49.675Z,67.07
2018-06-27T06:33:17.863Z,66.89
2018-06-27T06:35:46.091Z,66.86
2018-06-27T06:38:14.283Z,66.40
2018-06-27T06:40:42.494Z,67.06
2018-06-27T06:43:11.458Z,67.43
2018-06-27T06:45:39.675Z,66.63
2018-06-27T06:48:07.874Z,65.93
2018-06-27T06:50:36.048Z,65.34
2018-06-27T06:53:04.220Z,64.94
2018-06-27T06:55:32.570Z,64.50
2018-06-27T06:58:00.747Z,64.07
2018-06-27T07:00:29.022Z,64.13
2018-06-27T07:02:57.212Z,64.63
2018-06-27T07:05:25.387Z,64.39
2018-06-27T07:07:53.571Z,64.36
2018-06-27T07:10:21.759Z,63.82
2018-06-27T07:12:50.107Z,63.40
2018-06-27T07:15:18.283Z,62.67
2018-06-27T07:17:46.540Z,62.08
2018-06-27T07:20:14.711Z,61.86
2018-06-27T07:22:42.887Z,62.13
2018-06-27T07:25:11.079Z,62.42
2018-06-27T07:27:39.247Z,61.86
2018-06-27T07:30:07.435Z,62.04
2018-06-27T07:32:35.611Z,61.62
2018-06-27T07:35:03.861Z,61.20
2018-06-27T07:37:31.979Z,61.22
2018-06-27T07:40:00.151Z,60.40
2018-06-27T07:42:28.319Z,60.44
2018-06-27T07:44:56.503Z,59.80
2018-06-27T07:47:24.667Z,59.34
2018-06-27T07:49:52.924Z,58.94
2018-06-27T07:52:21.063Z,58.10
2018-06-27T07:54:49.239Z,58.04
2018-06-27T07:57:17.419Z,59.46
2018-06-27T07:59:45.579Z,60.07
2018-06-27T08:02:20.106Z,58.79
2018-06-27T08:04:48.279Z,57.35
2018-06-27T08:07:16.450Z,57.80
2018-06-27T08:09:44.647Z,57.68
2018-06-27T08:12:12.855Z,56.54
2018-06-27T08:14:41.004Z,56.49
2018-06-27T08:17:09.203Z,55.76
2018-06-27T08:19:37.375Z,55.43
2018-06-27T08:22:05.887Z,55.52
2018-06-27T08:24:34.068Z,54.88
2018-06-27T08:27:02.307Z,55.05
2018-06-27T08:29:30.487Z,54.81
2018-06-27T08:31:58.659Z,54.89
2018-06-27T08:34:26.847Z,53.50
2018-06-27T08:36:55.175Z,54.13
2018-06-27T08:39:23.376Z,53.67
2018-06-27T08:41:51.560Z,53.84
2018-06-27T08:44:19.795Z,54.35
2018-06-27T08:46:47.915Z,53.07
2018-06-27T08:49:16.079Z,51.94
2018-06-27T08:51:44.251Z,51.93
2018-06-27T08:54:12.411Z,51.61
2018-06-27T08:56:40.579Z,50.71
2018-06-27T08:59:08.763Z,51.59
2018-06-27T09:01:36.939Z,50.01
2018-06-27T09:04:05.133Z,51.15
2018-06-27T09:06:33.304Z,49.38
2018-06-27T09:09:01.470Z,49.70
2018-06-27T09:11:29.659Z,48.63
2018-06-27T09:13:57.823Z,47.47
2018-06-27T09:16:26.005Z,47.53
2018-06-27T09:18:54.158Z,48.43
2018-06-27T09:21:22.341Z,48.50
2018-06-27T09:23:50.507Z,47.60
2018-06-27T09:26:18.675Z,47.52
2018-06-27T09:28:46.850Z,48.20
2018-06-27T09:31:15.057Z,47.83
2018-06-27T09:33:43.205Z,45.31
2018-06-27T09:36:11.379Z,46.25
2018-06-27T09:38:39.563Z,45.29
2018-06-27T09:41:07.766Z,44.75
2018-06-27T09:43:35.947Z,45.36
2018-06-27T09:46:04.151Z,44.80
2018-06-27T09:48:32.345Z,43.59
2018-06-27T09:51:00.523Z,44.23
2018-06-27T09:53:28.751Z,42.32
2018-06-27T09:55:57.025Z,42.02
2018-06-27T09:58:25.183Z,41.52
2018-06-27T10:00:53.391Z,42.04
2018-06-27T10:03:21.553Z,41.43
2018-06-27T10:05:49.735Z,40.81
2018-06-27T10:08:17.898Z,40.06
2018-06-27T10:10:46.067Z,42.03
2018-06-27T10:13:14.248Z,39.35
2018-06-27T10:15:42.416Z,38.76
2018-06-27T10:18:10.595Z,39.77
2018-06-27T10:20:38.756Z,39.12
2018-06-27T10:23:07.069Z,39.03
2018-06-27T10:25:35.235Z,39.87
2018-06-27T10:28:03.395Z,40.37
2018-06-27T10:30:31.575Z,41.54
2018-06-27T10:32:59.772Z,39.64
2018-06-27T10:35:27.962Z,37.52
2018-06-27T10:37:56.170Z,37.08
2018-06-27T10:40:24.341Z,37.25
2018-06-27T10:42:52.579Z,38.81
2018-06-27T10:45:20.867Z,38.43
2018-06-27T10:47:49.055Z,38.90
2018-06-27T10:50:17.257Z,39.33
2018-06-27T10:52:45.427Z,39.04
2018-06-27T10:55:20.155Z,38.63
2018-06-27T10:57:48.595Z,36.78
2018-06-27T11:00:16.772Z,34.61
2018-06-27T11:02:44.935Z,33.58
2018-06-27T11:05:13.129Z,34.71
2018-06-27T11:07:41.307Z,33.64
2018-06-27T11:10:09.747Z,31.79
2018-06-27T11:12:37.918Z,30.09
2018-06-27T11:15:06.911Z,33.14
2018-06-27T11:17:35.071Z,32.46
2018-06-27T11:20:03.279Z,33.61
2018-06-27T11:22:31.456Z,29.77
2018-06-27T11:24:59.611Z,30.42
2018-06-27T11:27:27.796Z,32.50
2018-06-27T11:29:56.020Z,31.65
2018-06-27T11:32:24.562Z,32.06
2018-06-27T11:34:52.736Z,32.99
2018-06-27T11:37:20.903Z,30.99
2018-06-27T11:39:49.072Z,32.19
2018-06-27T11:42:17.248Z,32.21
2018-06-27T11:44:45.421Z,30.90
2018-06-27T11:47:13.587Z,32.00
2018-06-27T11:49:41.760Z,30.80
2018-06-27T11:52:09.935Z,30.29
2018-06-27T11:54:38.128Z,31.62
2018-06-27T11:57:06.323Z,32.17
2018-06-27T11:59:34.512Z,32.87
2018-06-27T12:02:02.691Z,32.39
2018-06-27T12:04:30.879Z,32.47
2018-06-27T12:06:59.066Z,33.03
2018-06-27T12:09:27.387Z,32.54
2018-06-27T12:11:55.579Z,31.59
2018-06-27T12:14:23.755Z,29.96
2018-06-27T12:16:51.985Z,32.04
2018-06-27T12:19:20.131Z,30.80
2018-06-27T12:21:48.295Z,32.23
2018-06-27T12:24:16.460Z,31.15
2018-06-27T12:26:44.628Z,30.39
2018-06-27T12:29:12.779Z,29.52
2018-06-27T12:31:40.987Z,30.36
2018-06-27T12:34:09.145Z,30.55
2018-06-27T12:36:37.327Z,30.37
2018-06-27T12:39:07.279Z,28.84
2018-06-27T12:41:35.455Z,31.60
2018-06-27T12:44:03.634Z,29.83
2018-06-27T12:46:31.823Z,29.97
2018-06-27T12:48:59.990Z,31.14
2018-06-27T12:51:28.179Z,31.47
2018-06-27T12:53:56.359Z,30.89
2018-06-27T12:56:24.519Z,31.73
2018-06-27T12:58:53.019Z,32.34
2018-06-27T13:01:21.191Z,31.44
2018-06-27T13:03:49.346Z,32.54
2018-06-27T13:06:17.515Z,32.99
2018-06-27T13:08:45.743Z,31.92
2018-06-27T13:11:13.870Z,32.00
2018-06-27T13:13:42.059Z,31.45
2018-06-27T13:16:10.247Z,31.17
2018-06-27T13:18:38.437Z,32.53
2018-06-27T13:21:06.626Z,32.08
2018-06-27T13:23:34.807Z,31.75
2018-06-27T13:26:02.983Z,33.00
2018-06-27T13:28:31.142Z,33.55
2018-06-27T13:30:59.359Z,32.63
2018-06-27T13:33:27.529Z,33.08
2018-06-27T13:35:56.165Z,34.22
2018-06-27T13:38:24.327Z,33.88
2018-06-27T13:40:52.507Z,34.04
2018-06-27T13:43:20.799Z,33.79
2018-06-27T13:45:49.307Z,34.33
2018-06-27T13:48:17.517Z,34.55
2018-06-27T13:50:45.743Z,34.52
2018-06-27T13:53:13.941Z,35.08
2018-06-27T13:55:42.219Z,34.76
2018-06-27T13:58:10.379Z,34.96
2018-06-27T14:00:39.070Z,33.70
2018-06-27T14:03:07.280Z,33.45
2018-06-27T14:05:35.453Z,33.06
2018-06-27T14:08:03.671Z,33.38
2018-06-27T14:10:31.830Z,33.40
2018-06-27T14:12:59.988Z,33.28
2018-06-27T14:15:28.186Z,32.69
2018-06-27T14:17:56.348Z,32.19
2018-06-27T14:20:24.519Z,33.17
2018-06-27T14:22:52.703Z,33.50
2018-06-27T14:25:20.887Z,33.10
2018-06-27T14:27:49.059Z,33.42
2018-06-27T14:30:17.251Z,33.35
2018-06-27T14:32:45.412Z,32.88
2018-06-27T14:35:13.603Z,32.36
2018-06-27T14:37:41.788Z,33.18
2018-06-27T14:40:10.015Z,32.32
2018-06-27T14:42:38.207Z,33.40
2018-06-27T14:45:06.690Z,32.73
2018-06-27T14:47:34.867Z,32.92
2018-06-27T14:50:03.063Z,32.24
2018-06-27T14:52:31.295Z,32.92
2018-06-27T14:54:59.423Z,31.22
2018-06-27T14:57:27.603Z,32.09
2018-06-27T14:59:55.795Z,31.30
2018-06-27T15:02:24.006Z,31.41
2018-06-27T15:04:52.225Z,31.00
2018-06-27T15:07:20.411Z,31.64
2018-06-27T15:09:48.595Z,31.82
2018-06-27T15:12:16.773Z,31.12
2018-06-27T15:14:44.959Z,30.45
2018-06-27T15:17:13.137Z,31.52
2018-06-27T15:19:41.312Z,30.41
2018-06-27T15:22:09.527Z,30.52
2018-06-27T15:24:37.710Z,30.00
2018-06-27T15:27:05.907Z,30.50
2018-06-27T15:29:34.211Z,29.95
2018-06-27T15:32:02.387Z,29.31
2018-06-27T15:34:30.551Z,29.58
2018-06-27T15:36:58.735Z,30.21
2018-06-27T15:39:26.923Z,29.80
2018-06-27T15:41:55.094Z,29.53
2018-06-27T15:44:23.291Z,29.83
2018-06-27T15:46:51.647Z,30.00
2018-06-27T15:49:19.999Z,30.42
2018-06-27T15:51:48.176Z,31.24
2018-06-27T15:54:16.351Z,30.31
2018-06-27T15:56:44.519Z,31.70
2018-06-27T15:59:12.780Z,31.67
2018-06-27T16:01:40.944Z,30.98
2018-06-27T16:04:09.123Z,31.54
2018-06-27T16:06:37.363Z,30.98
2018-06-27T16:09:07.395Z,31.06
2018-06-27T16:11:35.704Z,31.30
2018-06-27T16:14:03.895Z,32.48
2018-06-27T16:16:32.071Z,32.09
2018-06-27T16:19:00.371Z,31.88
2018-06-27T16:21:28.579Z,32.41
2018-06-27T16:23:56.762Z,33.13
2018-06-27T16:26:24.967Z,33.42
2018-06-27T16:28:53.171Z,32.82
2018-06-27T16:31:21.352Z,33.60
2018-06-27T16:33:49.899Z,32.81
2018-06-27T16:36:18.115Z,32.94
2018-06-27T16:38:46.295Z,33.77
2018-06-27T16:41:14.508Z,33.31
2018-06-27T16:43:42.687Z,33.65
2018-06-27T16:46:10.881Z,33.72
2018-06-27T16:48:40.012Z,34.03
2018-06-27T16:51:08.375Z,33.62
2018-06-27T16:53:36.464Z,34.07
2018-06-27T16:56:04.801Z,33.36
2018-06-27T16:58:33.065Z,33.32
2018-06-27T17:01:01.280Z,33.80
2018-06-27T17:03:29.424Z,34.26
2018-06-27T17:05:57.617Z,33.57
2018-06-27T17:08:25.883Z,35.00
2018-06-27T17:10:54.046Z,34.73
2018-06-27T17:13:22.260Z,34.88
2018-06-27T17:15:50.430Z,34.75
2018-06-27T17:18:18.616Z,34.29
2018-06-27T17:20:46.819Z,33.19
2018-06-27T17:23:14.995Z,33.00
2018-06-27T17:25:43.167Z,33.60
2018-06-27T17:28:11.343Z,32.69
2018-06-27T17:30:39.681Z,33.37
2018-06-27T17:33:07.795Z,32.77
2018-06-27T17:35:36.004Z,32.94
2018-06-27T17:38:04.257Z,32.80
2018-06-27T17:40:32.392Z,32.91
2018-06-27T17:43:00.567Z,33.36
2018-06-27T17:45:28.726Z,33.38
2018-06-27T17:47:56.927Z,33.83
2018-06-27T17:50:25.139Z,33.01
2018-06-27T17:52:53.311Z,33.54
2018-06-27T17:55:21.519Z,33.58
2018-06-27T17:57:49.739Z,34.57
2018-06-27T18:00:18.138Z,34.07
2018-06-27T18:02:47.200Z,34.38
2018-06-27T18:05:15.598Z,34.46
2018-06-27T18:07:43.835Z,35.03
2018-06-27T18:10:12.180Z,34.87
2018-06-27T18:12:40.558Z,35.08
2018-06-27T18:15:08.956Z,34.83
2018-06-27T18:17:37.188Z,34.73
2018-06-27T18:20:06.526Z,34.96
2018-06-27T18:22:34.716Z,34.85
2018-06-27T18:25:03.103Z,35.54
2018-06-27T18:27:31.304Z,35.38
2018-06-27T18:29:59.488Z,35.64
2018-06-27T18:32:27.658Z,34.95
2018-06-27T18:34:55.843Z,35.72
2018-06-27T18:37:24.016Z,36.21
2018-06-27T18:39:52.203Z,35.94
2018-06-27T18:42:20.395Z,35.64
2018-06-27T18:44:48.575Z,36.74
2018-06-27T18:47:16.784Z,36.74
2018-06-27T18:49:45.035Z,37.00
2018-06-27T18:52:13.227Z,37.12
2018-06-27T18:54:41.427Z,35.84
2018-06-27T18:57:09.638Z,36.64
2018-06-27T18:59:37.819Z,36.73
2018-06-27T19:02:06.388Z,37.00
2018-06-27T19:04:34.966Z,37.45
2018-06-27T19:07:03.171Z,37.60
2018-06-27T19:09:31.656Z,36.88
2018-06-27T19:12:00.076Z,37.97
2018-06-27T19:14:28.281Z,37.80
2018-06-27T19:16:56.624Z,37.62
2018-06-27T19:19:24.887Z,38.62
2018-06-27T19:21:53.070Z,38.10
2018-06-27T19:24:21.411Z,38.86
2018-06-27T19:26:50.130Z,38.33
2018-06-27T19:29:18.299Z,37.77
2018-06-27T19:31:46.953Z,38.58
2018-06-27T19:34:15.651Z,38.66
2018-06-27T19:36:44.175Z,38.30
2018-06-27T19:39:13.233Z,38.73
2018-06-27T19:41:41.424Z,38.67
2018-06-27T19:44:10.439Z,39.16
2018-06-27T19:46:38.626Z,39.66
2018-06-27T19:49:06.866Z,39.71
2018-06-27T19:51:35.121Z,40.42
2018-06-27T19:54:03.283Z,40.52
2018-06-27T19:56:31.471Z,40.39
2018-06-27T19:58:59.647Z,40.78
2018-06-27T20:01:27.815Z,40.56
2018-06-27T20:03:55.992Z,40.79
2018-06-27T20:06:24.171Z,40.66
2018-06-27T20:08:52.351Z,40.93
2018-06-27T20:11:20.554Z,41.21
2018-06-27T20:13:48.725Z,41.21
2018-06-27T20:16:16.915Z,41.55
2018-06-27T20:18:45.088Z,41.13
2018-06-27T20:21:13.263Z,41.57
2018-06-27T20:23:41.423Z,41.47
2018-06-27T20:26:09.631Z,41.53
2018-06-27T20:28:37.804Z,41.67
2018-06-27T20:31:06.217Z,42.32
2018-06-27T20:33:34.351Z,42.06
2018-06-27T20:36:02.600Z,41.72
2018-06-27T20:38:30.833Z,42.41
2018-06-27T20:40:58.979Z,42.18
2018-06-27T20:43:27.155Z,42.32
2018-06-27T20:45:55.323Z,42.65
2018-06-27T20:48:23.515Z,42.57
2018-06-27T20:50:51.731Z,42.69
2018-06-27T20:53:19.907Z,42.94
2018-06-27T20:55:48.107Z,43.11
2018-06-27T20:58:16.267Z,43.11
2018-06-27T21:00:44.435Z,43.06
2018-06-27T21:03:12.623Z,42.99
2018-06-27T21:05:40.803Z,43.12
2018-06-27T21:08:09.021Z,43.38
2018-06-27T21:10:37.230Z,43.60
2018-06-27T21:13:05.514Z,43.04
2018-06-27T21:15:33.695Z,43.60
2018-06-27T21:18:01.874Z,43.64
2018-06-27T21:20:30.047Z,43.72
2018-06-27T21:22:58.231Z,44.00
2018-06-27T21:25:26.538Z,43.89
2018-06-27T21:27:54.691Z,44.27
2018-06-27T21:30:22.884Z,43.97
2018-06-27T21:32:51.040Z,44.38
2018-06-27T21:35:19.274Z,44.62
2018-06-27T21:37:47.388Z,43.97
2018-06-27T21:40:15.558Z,44.64
2018-06-27T21:42:43.732Z,44.72
2018-06-27T21:45:11.906Z,44.30
2018-06-27T21:47:40.233Z,44.45
2018-06-27T21:50:08.407Z,44.46
2018-06-27T21:52:36.572Z,44.67
2018-06-27T21:55:04.921Z,45.21
2018-06-27T21:57:33.073Z,45.47
2018-06-27T22:00:01.266Z,45.28
2018-06-27T22:02:29.431Z,45.45
2018-06-27T22:04:57.611Z,45.38
2018-06-27T22:07:25.796Z,45.74
2018-06-27T22:09:53.967Z,45.38
2018-06-27T22:12:22.195Z,45.99
2018-06-27T22:14:50.367Z,45.81
2018-06-27T22:17:18.539Z,45.48
2018-06-27T22:19:46.707Z,45.76
2018-06-27T22:22:14.871Z,46.11
2018-06-27T22:24:43.051Z,45.46
2018-06-27T22:27:11.235Z,45.70
2018-06-27T22:29:39.571Z,46.02
2018-06-27T22:32:07.735Z,46.46
2018-06-27T22:34:36.347Z,46.46
2018-06-27T22:37:04.552Z,46.28
2018-06-27T22:39:32.739Z,46.75
2018-06-27T22:42:00.921Z,46.49
2018-06-27T22:44:29.111Z,46.86
2018-06-27T22:46:57.283Z,46.92
2018-06-27T22:49:25.469Z,47.26
2018-06-27T22:51:53.620Z,47.45
2018-06-27T22:54:21.815Z,47.59
2018-06-27T22:56:49.992Z,47.75
2018-06-27T22:59:18.155Z,47.89
2018-06-27T23:01:46.330Z,47.33
2018-06-27T23:04:14.507Z,47.77
2018-06-27T23:06:42.703Z,47.68
2018-06-27T23:09:11.386Z,48.13
2018-06-27T23:11:39.662Z,48.45
2018-06-27T23:14:08.059Z,48.43
2018-06-27T23:16:36.213Z,48.40
2018-06-27T23:19:04.406Z,48.16
2018-06-27T23:21:32.589Z,48.20
2018-06-27T23:24:00.752Z,48.30
2018-06-27T23:26:28.959Z,48.02
2018-06-27T23:28:57.127Z,48.67
2018-06-27T23:31:25.303Z,48.38
2018-06-27T23:33:53.752Z,48.60
2018-06-27T23:36:21.927Z,48.55
2018-06-27T23:38:50.122Z,48.43
2018-06-27T23:41:18.279Z,48.65
2018-06-27T23:43:49.319Z,48.70
2018-06-27T23:46:17.499Z,48.75
2018-06-27T23:48:45.675Z,48.76
2018-06-27T23:51:13.874Z,48.96
2018-06-27T23:53:42.066Z,48.89
2018-06-27T23:56:10.259Z,49.13
2018-06-27T23:58:38.455Z,49.40
